Time;durP1;ratioP1;P1;durP2;ratioP2;P2;SDS_P1;SDS_P2;PMS_P1;PMS_P2;Temp;Humidity;BMP_temperature;BMP_pressure;BME280_temperature;BME280_humidity;BME280_pressure;Samples;Min_cycle;Max_cycle;Signal;HPM_P1;HPM_P2
2023/09/02 00:01:54;;;;;;;3.38;1.80;;;22.30;96.70;;;;;;5043769;28;20045;-73
2023/09/02 00:04:22;;;;;;;5.97;2.53;;;22.30;96.70;;;;;;5049409;28;20056;-74
2023/09/02 00:06:51;;;;;;;6.50;2.55;;;22.20;96.70;;;;;;5050765;28;20048;-74
2023/09/02 00:09:19;;;;;;;5.25;2.67;;;22.10;96.70;;;;;;5052690;28;20419;-75
2023/09/02 00:11:47;;;;;;;11.70;2.55;;;22.00;96.70;;;;;;5061968;28;20040;-74
2023/09/02 00:14:16;;;;;;;5.68;2.70;;;22.10;96.70;;;;;;5049461;28;20045;-74
2023/09/02 00:16:44;;;;;;;7.43;2.67;;;22.10;96.70;;;;;;5027748;28;20053;-75
2023/09/02 00:19:12;;;;;;;5.90;2.70;;;22.20;96.70;;;;;;5027567;28;20041;-74
2023/09/02 00:21:41;;;;;;;4.15;2.38;;;22.10;96.70;;;;;;5046364;28;20690;-74
2023/09/02 00:24:09;;;;;;;4.38;2.28;;;22.10;96.70;;;;;;5046313;28;20052;-73
2023/09/02 00:26:37;;;;;;;4.40;2.50;;;22.00;96.70;;;;;;5046971;28;20113;-74
2023/09/02 00:29:05;;;;;;;6.03;2.38;;;22.00;96.70;;;;;;5047073;28;20048;-75
2023/09/02 00:31:34;;;;;;;4.93;2.67;;;22.00;96.70;;;;;;5044215;28;20060;-74
2023/09/02 00:34:03;;;;;;;4.00;2.40;;;21.90;96.70;;;;;;5037598;28;20076;-74
2023/09/02 00:36:32;;;;;;;6.07;2.70;;;21.90;96.70;;;;;;5034658;28;20053;-75
2023/09/02 00:39:00;;;;;;;4.85;2.53;;;21.90;96.70;;;;;;5041414;28;20041;-75
2023/09/02 00:41:32;;;;;;;4.28;2.88;;;21.70;96.70;;;;;;5039459;28;20111;-74
2023/09/02 07:04:59;;;;;;;5.85;4.28;;;21.40;96.70;;;;;;5043979;28;20458;-80
2023/09/02 07:07:27;;;;;;;6.35;4.38;;;21.60;96.70;;;;;;5056964;28;20045;-80
2023/09/02 07:09:55;;;;;;;6.45;4.90;;;21.60;96.70;;;;;;5043010;28;20062;-79
2023/09/02 07:12:23;;;;;;;9.05;5.72;;;21.70;96.70;;;;;;5063125;28;20051;-81
2023/09/02 07:14:51;;;;;;;9.43;5.55;;;21.70;96.70;;;;;;5063505;28;20105;-79
2023/09/02 07:17:20;;;;;;;7.93;5.13;;;21.80;96.70;;;;;;5045047;28;20045;-80
2023/09/02 07:19:48;;;;;;;7.65;4.85;;;21.80;96.70;;;;;;5045937;28;20048;-82
2023/09/02 07:22:17;;;;;;;7.93;4.55;;;21.80;96.70;;;;;;5047626;28;20074;-80
2023/09/02 07:24:45;;;;;;;6.72;4.65;;;21.90;96.70;;;;;;5050095;28;20510;-80
2023/09/02 07:27:14;;;;;;;5.97;3.88;;;22.00;96.70;;;;;;5048851;28;20072;-80
2023/09/02 07:29:42;;;;;;;5.13;3.25;;;22.10;96.70;;;;;;5049645;28;20157;-82
2023/09/02 07:32:10;;;;;;;4.85;3.00;;;22.10;96.70;;;;;;5067693;28;20036;-81
2023/09/02 07:34:41;;;;;;;4.68;3.10;;;22.20;96.70;;;;;;5047307;28;20048;-82
2023/09/02 07:37:09;;;;;;;9.70;4.10;;;22.30;96.70;;;;;;5046099;28;20052;-80
2023/09/02 07:39:38;;;;;;;7.00;4.72;;;22.40;96.70;;;;;;5064955;28;20068;-80
2023/09/02 07:42:07;;;;;;;6.75;2.92;;;22.40;96.70;;;;;;5048391;28;20051;-81
2023/09/02 07:44:35;;;;;;;4.63;2.80;;;22.40;96.70;;;;;;5048725;28;20445;-81
2023/09/02 07:47:03;;;;;;;6.18;2.50;;;22.50;96.70;;;;;;5067115;28;20497;-80
2023/09/02 07:49:31;;;;;;;6.40;3.03;;;22.60;96.70;;;;;;5047349;28;20063;-80
2023/09/02 07:51:59;;;;;;;4.97;2.50;;;22.60;96.70;;;;;;5047751;28;20091;-81
2023/09/02 07:54:27;;;;;;;4.95;2.92;;;22.70;96.70;;;;;;5074359;28;20036;-81
2023/09/02 07:56:56;;;;;;;6.15;2.33;;;22.70;96.70;;;;;;5057365;28;20057;-82
2023/09/02 07:59:26;;;;;;;4.82;2.53;;;22.80;96.70;;;;;;5055278;28;20068;-82
2023/09/02 08:01:54;;;;;;;6.38;2.42;;;22.90;96.70;;;;;;5049056;28;20045;-82
2023/09/02 08:04:22;;;;;;;4.18;2.60;;;23.00;96.70;;;;;;5072553;28;20048;-81
2023/09/02 08:06:50;;;;;;;5.32;2.72;;;23.00;96.70;;;;;;5071446;28;20047;-81
2023/09/02 08:09:19;;;;;;;4.88;2.97;;;23.00;96.70;;;;;;5053540;28;20467;-82
2023/09/02 08:11:47;;;;;;;6.72;3.22;;;23.10;96.70;;;;;;5048650;28;20041;-81
2023/09/02 08:14:16;;;;;;;5.50;2.80;;;23.20;96.70;;;;;;5073919;28;20051;-81
2023/09/02 08:16:44;;;;;;;6.32;3.20;;;23.30;96.70;;;;;;5036227;28;20626;-82
2023/09/02 08:19:12;;;;;;;5.05;3.75;;;23.30;96.70;;;;;;5051084;28;20049;-81
2023/09/02 08:21:40;;;;;;;7.35;4.00;;;23.40;96.70;;;;;;5053857;28;20051;-82
2023/09/02 08:24:08;;;;;;;4.22;3.00;;;23.40;96.70;;;;;;5047475;28;20430;-82
2023/09/02 08:26:36;;;;;;;7.30;2.83;;;23.40;96.70;;;;;;5050559;28;20509;-81
2023/09/02 08:29:05;;;;;;;8.02;3.28;;;23.40;96.70;;;;;;5030756;28;20690;-80
2023/09/02 08:31:34;;;;;;;5.35;2.90;;;23.50;96.70;;;;;;5063318;28;20036;-81
2023/09/02 08:34:02;;;;;;;5.57;2.90;;;23.50;96.70;;;;;;5030163;28;20118;-82
2023/09/02 08:36:30;;;;;;;6.60;3.42;;;23.60;96.70;;;;;;5062306;28;20037;-79
2023/09/02 08:38:58;;;;;;;4.78;2.80;;;23.80;96.70;;;;;;5046983;28;20067;-78
2023/09/02 08:41:30;;;;;;;6.95;3.55;;;23.80;96.70;;;;;;5047294;28;20098;-81
2023/09/02 08:44:20;;;;;;;4.97;2.65;;;23.90;96.70;;;;;;5028630;28;20052;-80
2023/09/02 08:46:53;;;;;;;5.13;2.60;;;24.00;96.70;;;;;;5004230;28;20060;-81
2023/09/02 08:49:22;;;;;;;5.22;2.90;;;24.10;96.70;;;;;;5008570;28;20150;-80
2023/09/02 08:51:52;;;;;;;5.53;2.63;;;24.20;96.70;;;;;;5003399;28;20499;-80
2023/09/02 08:54:22;;;;;;;4.43;2.85;;;24.30;96.70;;;;;;5022615;28;20118;-79
2023/09/02 08:56:51;;;;;;;5.57;2.90;;;24.40;96.70;;;;;;5034628;28;20111;-80
2023/09/02 08:59:19;;;;;;;10.05;3.42;;;24.40;96.70;;;;;;5034052;28;20564;-79
2023/09/02 09:01:49;;;;;;;6.05;3.55;;;24.40;96.70;;;;;;5021131;28;20038;-79
2023/09/02 09:04:19;;;;;;;8.32;3.38;;;24.50;96.70;;;;;;5026252;28;20129;-79
2023/09/02 09:06:50;;;;;;;7.05;2.63;;;24.50;96.70;;;;;;5005401;28;20072;-81
2023/09/02 09:09:20;;;;;;;6.05;2.97;;;24.60;96.70;;;;;;5021774;28;20052;-79
2023/09/02 09:11:50;;;;;;;6.82;2.90;;;24.70;96.70;;;;;;5030944;28;20559;-78
2023/09/02 09:14:24;;;;;;;4.60;2.80;;;24.80;96.70;;;;;;5059624;28;20040;-79
2023/09/02 09:16:55;;;;;;;7.07;3.40;;;24.90;96.70;;;;;;5051857;28;20603;-81
2023/09/02 09:19:26;;;;;;;7.20;4.03;;;25.00;96.70;;;;;;5073344;28;20422;-80
2023/09/02 09:21:55;;;;;;;7.85;4.53;;;25.10;96.70;;;;;;5044604;28;20130;-79
2023/09/02 09:24:23;;;;;;;5.57;2.88;;;25.10;96.70;;;;;;5057625;28;20040;-81
2023/09/02 09:26:52;;;;;;;6.05;2.95;;;25.00;96.70;;;;;;5044083;28;20072;-81
2023/09/02 09:29:23;;;;;;;7.25;3.15;;;25.00;96.70;;;;;;5036560;28;20098;-78
2023/09/02 09:32:07;;;;;;;6.55;2.90;;;25.10;96.70;;;;;;5072916;28;20132;-77
2023/09/02 09:34:39;;;;;;;4.55;2.72;;;25.30;96.70;;;;;;5047316;28;20049;-77
2023/09/02 09:37:08;;;;;;;5.68;2.70;;;25.40;96.70;;;;;;5063694;28;20049;-77
2023/09/02 09:39:40;;;;;;;4.75;2.42;;;25.60;96.70;;;;;;5063653;28;20106;-77
2023/09/02 09:42:11;;;;;;;5.18;2.83;;;25.80;96.70;;;;;;5058500;28;20037;-77
2023/09/02 09:44:53;;;;;;;4.30;2.25;;;25.90;96.70;;;;;;5045998;28;20127;-78
2023/09/02 09:47:22;;;;;;;4.85;2.60;;;25.90;96.70;;;;;;5046128;28;20040;-80
2023/09/02 09:49:52;;;;;;;10.43;9.30;;;26.00;96.70;;;;;;5058028;28;20499;-79
2023/09/02 09:52:21;;;;;;;5.53;3.83;;;25.90;96.70;;;;;;5050898;28;20044;-80
2023/09/02 09:54:52;;;;;;;6.43;2.75;;;26.00;96.70;;;;;;5064567;28;20579;-79
2023/09/02 09:57:34;;;;;;;6.88;2.88;;;26.10;96.70;;;;;;5056018;28;20040;-80
2023/09/02 10:00:03;;;;;;;4.10;2.38;;;26.30;96.70;;;;;;5042853;28;20102;-81
2023/09/02 10:02:32;;;;;;;4.53;2.40;;;26.50;96.70;;;;;;5046765;28;20451;-80
2023/09/02 10:05:03;;;;;;;6.63;2.60;;;26.80;96.70;;;;;;5030184;28;20065;-80
2023/09/02 10:07:32;;;;;;;5.03;2.20;;;26.90;96.70;;;;;;5029530;28;20167;-82
2023/09/02 10:10:02;;;;;;;13.05;3.33;;;26.80;96.70;;;;;;5055828;28;20079;-80
2023/09/02 10:12:33;;;;;;;5.78;3.10;;;26.90;96.70;;;;;;5045655;28;20150;-80
2023/09/02 10:15:07;;;;;;;4.03;2.72;;;27.10;96.70;;;;;;5044504;28;20069;-81
2023/09/02 10:17:37;;;;;;;5.30;2.15;;;27.30;96.70;;;;;;5041864;28;20072;-80
2023/09/02 10:20:09;;;;;;;3.58;2.05;;;27.50;96.70;;;;;;5060039;28;20068;-80
2023/09/02 10:22:43;;;;;;;6.75;2.35;;;27.60;96.70;;;;;;5034226;28;20728;-81
2023/09/02 10:25:18;;;;;;;2.60;1.63;;;27.60;96.70;;;;;;5027942;28;20048;-79
2023/09/02 10:27:53;;;;;;;3.42;2.13;;;27.50;96.70;;;;;;5044761;28;20056;-79
2023/09/02 10:30:25;;;;;;;3.50;2.03;;;27.80;96.70;;;;;;5046442;28;20440;-79
2023/09/02 10:32:59;;;;;;;3.05;1.65;;;27.90;96.70;;;;;;5065784;28;20044;-79
2023/09/02 10:35:31;;;;;;;3.47;1.95;;;27.80;96.70;;;;;;5042302;28;20045;-79
2023/09/02 10:38:03;;;;;;;4.38;2.00;;;27.90;96.70;;;;;;5045281;28;20051;-80
2023/09/02 10:40:38;;;;;;;3.83;2.13;;;28.00;96.70;;;;;;5040558;28;20080;-79
2023/09/02 10:43:07;;;;;;;3.83;1.98;;;28.10;96.70;;;;;;5063073;28;20082;-79
2023/09/02 10:45:36;;;;;;;3.80;1.85;;;28.10;96.70;;;;;;5044316;28;20036;-79
2023/09/02 10:48:06;;;;;;;4.43;1.40;;;28.30;96.70;;;;;;5044160;28;21164;-79
2023/09/02 10:50:42;;;;;;;3.80;1.88;;;28.60;96.70;;;;;;5062348;28;20044;-79
2023/09/02 10:53:11;;;;;;;3.28;1.83;;;28.50;96.70;;;;;;5042766;28;20052;-78
2023/09/02 10:56:01;;;;;;;6.38;2.90;;;28.70;96.70;;;;;;5046543;28;20139;-80
2023/09/02 10:58:47;;;;;;;3.30;1.67;;;29.10;96.70;;;;;;5063174;28;20041;-79
2023/09/02 11:01:16;;;;;;;3.25;1.58;;;29.10;96.70;;;;;;5066491;28;20119;-78
2023/09/02 11:03:46;;;;;;;5.05;1.42;;;29.20;96.70;;;;;;5047836;28;20182;-78
2023/09/02 11:06:17;;;;;;;3.40;1.52;;;29.20;96.70;;;;;;5065660;28;20134;-78
2023/09/02 11:08:49;;;;;;;3.20;1.63;;;29.30;96.70;;;;;;5064281;28;20214;-79
2023/09/02 11:11:18;;;;;;;4.07;1.80;;;29.40;96.70;;;;;;5048200;28;20246;-79
2023/09/02 11:14:20;;;;;;;2.65;1.40;;;29.40;96.70;;;;;;5049010;28;20040;-78
2023/09/02 11:17:27;;;;;;;2.92;1.50;;;29.40;96.70;;;;;;5030437;28;20075;-78
2023/09/02 11:19:57;;;;;;;3.30;1.80;;;29.30;96.70;;;;;;5047553;28;20049;-78
2023/09/02 11:22:52;;;;;;;5.03;1.85;;;29.50;96.70;;;;;;5048809;28;21441;-78
2023/09/02 11:25:28;;;;;;;2.70;1.73;;;29.90;96.70;;;;;;5054602;28;20427;-78
2023/09/02 11:27:58;;;;;;;3.40;1.90;;;30.10;96.70;;;;;;5052687;28;20063;-79
2023/09/02 11:30:29;;;;;;;3.30;1.80;;;30.20;96.70;;;;;;5048561;28;20063;-79
2023/09/02 11:32:59;;;;;;;3.83;1.98;;;30.00;96.70;;;;;;5066374;28;20091;-78
2023/09/02 11:35:28;;;;;;;3.45;1.88;;;30.10;96.70;;;;;;5065130;28;20036;-78
2023/09/02 11:37:59;;;;;;;4.95;2.20;;;30.40;96.70;;;;;;5066316;28;20053;-78
2023/09/02 11:40:28;;;;;;;6.25;5.65;;;30.60;96.70;;;;;;5070658;28;20085;-80
2023/09/02 11:43:00;;;;;;;7.40;6.35;;;30.60;96.70;;;;;;5050006;28;20044;-79
2023/09/02 11:45:31;;;;;;;3.92;2.55;;;30.40;96.70;;;;;;5062363;28;20044;-81
2023/09/02 11:48:01;;;;;;;4.15;2.28;;;30.40;96.70;;;;;;5043819;28;20139;-79
2023/09/02 11:50:30;;;;;;;3.35;1.95;;;30.50;96.70;;;;;;5047452;28;20040;-79
2023/09/02 11:52:59;;;;;;;4.03;2.17;;;30.70;96.70;;;;;;5048294;28;20047;-81
2023/09/02 11:55:28;;;;;;;5.25;2.28;;;31.00;96.70;;;;;;5045996;28;20110;-79
2023/09/02 11:57:56;;;;;;;4.18;1.73;;;31.10;96.70;;;;;;5049025;28;21020;-80
2023/09/02 12:00:25;;;;;;;4.07;2.20;;;31.00;96.70;;;;;;5047529;28;20040;-79
2023/09/02 12:02:56;;;;;;;2.72;1.88;;;31.00;96.70;;;;;;5050163;28;20644;-78
2023/09/02 12:05:25;;;;;;;3.67;2.13;;;31.20;96.70;;;;;;5027570;28;20103;-79
2023/09/02 12:07:55;;;;;;;2.88;1.58;;;30.90;96.70;;;;;;5036671;28;20053;-78
2023/09/02 12:10:26;;;;;;;3.00;1.85;;;30.80;96.70;;;;;;5042506;28;20044;-78
2023/09/02 12:12:55;;;;;;;2.00;1.60;;;30.70;96.70;;;;;;5029563;28;20076;-80
2023/09/02 12:15:23;;;;;;;4.03;2.10;;;30.60;96.70;;;;;;5031802;28;20126;-80
2023/09/02 12:17:54;;;;;;;2.70;1.65;;;30.60;96.70;;;;;;5006509;28;20053;-79
2023/09/02 12:20:24;;;;;;;2.67;1.60;;;30.90;96.70;;;;;;5035786;28;20069;-79
2023/09/02 12:22:52;;;;;;;4.93;2.13;;;31.10;96.70;;;;;;5022605;28;20037;-80
2023/09/02 12:25:22;;;;;;;3.22;2.08;;;31.20;96.70;;;;;;5043277;28;20102;-79
2023/09/02 12:28:07;;;;;;;3.50;2.03;;;31.40;96.70;;;;;;5038754;28;20072;-79
2023/09/02 12:30:36;;;;;;;4.28;1.77;;;31.60;96.70;;;;;;5025017;28;20045;-80
2023/09/02 12:33:08;;;;;;;4.97;2.08;;;31.70;96.70;;;;;;5026761;28;20049;-80
2023/09/02 12:35:36;;;;;;;3.60;2.10;;;31.60;96.70;;;;;;5027503;28;20042;-79
2023/09/02 12:38:06;;;;;;;3.72;2.00;;;31.40;96.70;;;;;;5019042;28;20524;-79
2023/09/02 12:40:34;;;;;;;3.00;2.08;;;31.50;96.70;;;;;;5025562;28;20063;-79
2023/09/02 12:43:07;;;;;;;3.95;1.88;;;31.40;96.70;;;;;;5025687;28;20061;-80
2023/09/02 12:45:40;;;;;;;3.67;2.35;;;31.50;96.70;;;;;;5025243;28;20095;-78
2023/09/02 12:48:09;;;;;;;5.22;2.42;;;31.60;96.70;;;;;;5027673;28;20459;-79
2023/09/02 12:50:37;;;;;;;3.47;2.10;;;31.70;96.70;;;;;;5033557;28;20071;-79
2023/09/02 12:53:08;;;;;;;3.47;1.90;;;31.60;96.70;;;;;;5025512;28;20045;-79
2023/09/02 12:55:41;;;;;;;3.75;2.10;;;31.40;96.70;;;;;;5021106;28;20575;-79
2023/09/02 12:58:11;;;;;;;3.47;1.98;;;31.30;96.70;;;;;;5026105;28;20038;-78
2023/09/02 13:00:39;;;;;;;3.65;2.00;;;31.60;96.70;;;;;;5028062;28;20716;-79
2023/09/02 13:03:07;;;;;;;3.47;1.83;;;31.70;96.70;;;;;;5026473;28;20140;-78
2023/09/02 13:05:36;;;;;;;3.30;2.17;;;31.70;96.70;;;;;;5049261;28;20201;-80
2023/09/02 13:08:05;;;;;;;5.53;1.98;;;31.70;96.70;;;;;;5050161;28;20045;-80
2023/09/02 13:10:34;;;;;;;3.85;2.03;;;31.90;96.70;;;;;;5046826;28;20460;-80
2023/09/02 13:13:02;;;;;;;5.07;2.17;;;31.90;96.70;;;;;;5046234;28;20036;-80
2023/09/02 13:15:32;;;;;;;6.13;2.15;;;31.90;96.70;;;;;;5047016;28;20131;-81
2023/09/02 13:18:00;;;;;;;4.10;2.10;;;31.90;96.70;;;;;;5049280;28;20127;-79
2023/09/02 13:20:34;;;;;;;4.80;1.75;;;32.00;96.70;;;;;;5051794;28;20041;-80
2023/09/02 13:23:04;;;;;;;5.30;1.75;;;32.20;96.70;;;;;;5047618;28;20429;-82
2023/09/02 13:25:32;;;;;;;2.35;1.80;;;32.40;96.70;;;;;;5046399;28;20049;-79
2023/09/02 13:28:01;;;;;;;3.60;2.00;;;32.50;96.70;;;;;;5046421;28;20044;-78
2023/09/02 13:30:31;;;;;;;2.85;1.80;;;32.40;96.70;;;;;;5057262;28;20159;-79
2023/09/02 13:32:59;;;;;;;2.95;1.83;;;32.40;96.70;;;;;;5068240;28;20391;-79
2023/09/02 13:35:28;;;;;;;3.80;1.92;;;32.60;96.70;;;;;;5064410;28;20036;-81
2023/09/02 13:37:58;;;;;;;8.10;2.13;;;32.80;96.70;;;;;;5053519;28;20067;-79
2023/09/02 13:40:36;;;;;;;2.95;1.73;;;33.10;96.70;;;;;;5064814;28;20045;-79
2023/09/02 13:43:10;;;;;;;2.83;1.65;;;33.30;96.70;;;;;;5064247;28;20063;-78
2023/09/02 13:45:40;;;;;;;2.67;1.60;;;33.30;96.70;;;;;;5062026;28;20392;-78
2023/09/02 13:48:09;;;;;;;5.20;1.83;;;33.50;96.70;;;;;;5055163;28;20494;-80
2023/09/02 13:50:37;;;;;;;5.35;2.05;;;33.70;96.70;;;;;;5028179;28;20652;-83
2023/09/02 13:53:08;;;;;;;5.05;2.03;;;33.60;96.70;;;;;;5047344;28;20067;-80
2023/09/02 13:55:38;;;;;;;2.97;1.98;;;33.50;96.70;;;;;;5058629;28;20526;-81
2023/09/02 13:58:09;;;;;;;4.32;2.28;;;33.70;96.70;;;;;;5046920;28;20241;-82
2023/09/02 14:00:40;;;;;;;4.63;2.10;;;33.70;96.70;;;;;;5026779;28;20049;-81
2023/09/02 14:03:17;;;;;;;2.97;2.00;;;33.90;96.70;;;;;;5065143;28;20044;-79
2023/09/02 14:05:48;;;;;;;3.15;2.10;;;34.30;96.70;;;;;;5041584;28;20053;-81
2023/09/02 14:08:20;;;;;;;3.72;2.00;;;34.70;96.70;;;;;;5026255;28;20053;-81
2023/09/02 14:10:51;;;;;;;7.57;2.50;;;35.00;96.70;;;;;;5030945;28;20056;-77
2023/09/02 14:13:20;;;;;;;3.08;2.38;;;35.30;96.70;;;;;;5022668;28;20053;-77
2023/09/02 14:15:50;;;;;;;3.40;1.90;;;35.60;96.70;;;;;;5035176;28;20466;-78
2023/09/02 14:18:18;;;;;;;4.75;2.17;;;35.70;96.70;;;;;;5031970;28;20041;-79
2023/09/02 14:20:47;;;;;;;2.15;1.75;;;35.80;96.70;;;;;;5042037;28;20095;-78
2023/09/02 14:23:15;;;;;;;4.38;2.30;;;35.90;96.70;;;;;;5041886;28;20091;-78
2023/09/02 14:25:44;;;;;;;2.72;2.05;;;36.20;96.70;;;;;;5039224;28;20041;-78
2023/09/02 14:28:12;;;;;;;3.83;2.00;;;36.60;96.70;;;;;;5034402;28;20057;-79
2023/09/02 14:30:41;;;;;;;3.60;1.90;;;36.90;96.70;;;;;;5041159;28;20045;-79
2023/09/02 14:33:10;;;;;;;4.47;2.35;;;37.10;96.70;;;;;;5029059;28;20099;-78
2023/09/02 14:35:39;;;;;;;3.90;2.28;;;37.20;94.70;;;;;;5035352;28;20037;-77
2023/09/02 14:38:09;;;;;;;3.40;2.05;;;36.90;94.30;;;;;;5040033;28;20041;-79
2023/09/02 14:40:42;;;;;;;5.22;1.75;;;36.90;95.00;;;;;;5020412;28;20046;-79
2023/09/02 14:43:10;;;;;;;3.15;1.90;;;37.30;95.70;;;;;;5043201;28;20430;-77
2023/09/02 14:45:39;;;;;;;4.07;2.45;;;37.50;93.70;;;;;;5026874;28;20064;-80
2023/09/02 14:48:08;;;;;;;4.47;2.20;;;37.70;93.40;;;;;;5035838;28;20046;-81
2023/09/02 14:50:40;;;;;;;4.53;2.20;;;37.70;92.40;;;;;;5037307;28;20129;-79
2023/09/02 14:53:11;;;;;;;3.15;1.92;;;37.80;92.50;;;;;;5014749;28;20063;-81
2023/09/02 14:55:44;;;;;;;5.65;2.15;;;38.00;92.20;;;;;;5047548;28;20037;-80
2023/09/02 14:58:14;;;;;;;5.18;2.20;;;38.40;92.20;;;;;;5025956;28;20101;-79
2023/09/02 15:00:43;;;;;;;2.50;1.90;;;38.70;92.00;;;;;;5029515;28;20133;-79
2023/09/02 15:03:22;;;;;;;7.95;2.53;;;38.80;90.70;;;;;;5035773;28;20103;-81
2023/09/02 15:05:57;;;;;;;3.10;2.60;;;36.80;96.70;;;;;;5027594;28;20656;-81
2023/09/02 15:08:27;;;;;;;5.82;2.63;;;35.70;96.70;;;;;;5008199;28;20045;-82
2023/09/02 15:11:00;;;;;;;5.28;2.08;;;35.20;96.70;;;;;;5036563;28;20041;-82
2023/09/02 15:13:29;;;;;;;3.75;2.58;;;35.00;96.70;;;;;;5042387;28;20056;-81
2023/09/02 15:15:59;;;;;;;4.28;2.35;;;35.10;96.70;;;;;;5036273;28;20124;-81
2023/09/02 15:18:29;;;;;;;4.95;2.42;;;34.90;96.70;;;;;;5033696;28;20062;-79
2023/09/02 15:21:02;;;;;;;4.30;2.60;;;34.80;96.70;;;;;;5033921;28;20049;-81
2023/09/02 15:23:32;;;;;;;4.63;2.42;;;34.80;96.70;;;;;;5018717;28;20091;-80
2023/09/02 15:26:01;;;;;;;4.05;2.15;;;35.00;96.70;;;;;;5030137;28;20441;-80
2023/09/02 15:28:31;;;;;;;4.30;2.55;;;35.10;96.70;;;;;;5024235;28;20569;-74
2023/09/02 15:31:05;;;;;;;5.30;1.98;;;34.70;96.70;;;;;;5043746;28;20114;-73
2023/09/02 15:33:34;;;;;;;4.88;2.30;;;34.50;96.70;;;;;;5040721;28;20046;-74
2023/09/02 15:36:12;;;;;;;4.93;2.30;;;34.80;96.70;;;;;;5031633;28;20041;-74
2023/09/02 15:38:41;;;;;;;4.82;2.30;;;34.70;96.70;;;;;;5017829;28;20061;-74
2023/09/02 15:41:09;;;;;;;3.83;2.20;;;34.90;96.70;;;;;;5035673;28;20498;-76
2023/09/02 15:43:38;;;;;;;5.32;2.53;;;34.10;96.70;;;;;;5061415;28;20041;-75
2023/09/02 15:46:07;;;;;;;3.92;2.35;;;34.00;96.70;;;;;;5032869;28;20395;-75
2023/09/02 15:48:35;;;;;;;8.55;2.58;;;34.20;96.70;;;;;;5027332;28;20072;-76
2023/09/02 15:51:06;;;;;;;4.15;2.25;;;34.10;96.70;;;;;;5046430;28;20044;-76
2023/09/02 15:53:34;;;;;;;3.08;2.15;;;34.10;96.70;;;;;;5036144;28;20094;-76
2023/09/02 15:56:03;;;;;;;4.47;2.65;;;34.20;96.70;;;;;;5031189;28;20044;-75
2023/09/02 15:58:31;;;;;;;5.32;2.50;;;34.30;96.70;;;;;;5032692;28;20053;-74
2023/09/02 16:01:00;;;;;;;5.57;2.70;;;34.00;96.70;;;;;;5031845;28;20056;-76
2023/09/02 16:03:28;;;;;;;5.95;2.50;;;34.20;96.70;;;;;;5038576;28;20135;-76
2023/09/02 16:05:57;;;;;;;5.25;2.45;;;34.20;96.70;;;;;;5026564;28;20049;-77
2023/09/02 16:08:27;;;;;;;5.93;2.45;;;34.30;96.70;;;;;;5047242;28;20128;-76
2023/09/02 16:10:55;;;;;;;3.85;2.00;;;34.10;96.70;;;;;;5043190;28;20056;-75
2023/09/02 16:13:24;;;;;;;5.05;2.67;;;34.30;96.70;;;;;;5030212;28;20149;-75
2023/09/02 16:15:52;;;;;;;5.78;2.20;;;34.30;96.70;;;;;;5026536;28;20049;-77
2023/09/02 16:18:21;;;;;;;6.18;2.55;;;34.20;96.70;;;;;;5016099;28;20063;-76
2023/09/02 16:20:52;;;;;;;5.50;2.17;;;34.00;96.70;;;;;;5030572;28;20041;-75
2023/09/02 16:23:20;;;;;;;3.22;2.00;;;34.00;96.70;;;;;;5019398;28;20832;-75
2023/09/02 16:25:50;;;;;;;5.38;2.47;;;33.50;96.70;;;;;;5036684;28;20037;-75
2023/09/02 16:28:19;;;;;;;5.53;1.98;;;34.00;96.70;;;;;;5049143;28;20524;-75
2023/09/02 16:30:47;;;;;;;5.20;2.20;;;33.90;96.70;;;;;;5037489;28;20037;-76
2023/09/02 16:33:15;;;;;;;5.68;2.47;;;34.60;96.70;;;;;;5043964;28;20566;-77
2023/09/02 16:35:44;;;;;;;3.85;2.22;;;34.60;96.70;;;;;;5043060;28;20045;-77
2023/09/02 16:38:13;;;;;;;3.17;1.95;;;34.70;96.70;;;;;;5030304;28;20041;-75
2023/09/02 16:40:50;;;;;;;5.03;2.45;;;34.90;96.70;;;;;;5034701;28;20049;-77
2023/09/02 16:43:19;;;;;;;6.28;2.63;;;35.00;96.70;;;;;;5022568;28;20049;-77
2023/09/02 16:45:47;;;;;;;6.80;2.42;;;35.00;96.70;;;;;;5027885;28;20053;-74
2023/09/02 16:48:20;;;;;;;4.63;1.95;;;35.00;96.70;;;;;;5037080;28;20342;-76
2023/09/02 16:50:49;;;;;;;3.90;2.05;;;35.10;96.70;;;;;;5024722;28;20140;-77
2023/09/02 16:53:17;;;;;;;3.95;2.03;;;34.90;96.70;;;;;;5023580;28;20061;-77
2023/09/02 16:55:47;;;;;;;4.40;2.28;;;34.60;96.70;;;;;;5025113;28;20560;-75
2023/09/02 16:58:20;;;;;;;3.88;2.20;;;34.30;96.70;;;;;;5039716;28;20044;-78
2023/09/02 17:00:48;;;;;;;2.97;1.73;;;33.40;96.70;;;;;;5038825;28;20116;-76
2023/09/02 17:03:18;;;;;;;4.70;2.28;;;33.50;96.70;;;;;;5030405;28;20116;-75
2023/09/02 17:05:46;;;;;;;5.32;1.83;;;33.80;96.70;;;;;;5053673;28;20083;-75
2023/09/02 17:08:21;;;;;;;2.85;2.10;;;32.80;96.70;;;;;;5060431;28;20044;-76
2023/09/02 17:10:49;;;;;;;3.85;1.80;;;31.10;96.70;;;;;;5064086;28;20097;-76
2023/09/02 17:13:19;;;;;;;3.83;1.67;;;30.10;96.70;;;;;;5064260;28;20040;-75
2023/09/02 17:15:48;;;;;;;3.20;1.90;;;29.50;96.70;;;;;;5038124;28;20048;-76
2023/09/02 17:18:17;;;;;;;4.22;1.90;;;29.10;96.70;;;;;;5064608;28;20506;-75
2023/09/02 17:20:46;;;;;;;3.13;1.80;;;28.70;96.70;;;;;;5051053;28;20044;-74
2023/09/02 17:23:17;;;;;;;3.55;2.22;;;28.50;96.70;;;;;;5036675;28;20043;-72
2023/09/02 17:25:48;;;;;;;5.25;2.28;;;28.40;96.70;;;;;;5045355;28;20048;-72
2023/09/02 17:28:27;;;;;;;4.18;1.75;;;28.20;96.70;;;;;;5046949;28;20520;-72
2023/09/02 17:31:02;;;;;;;4.25;1.67;;;28.10;96.70;;;;;;5049959;28;20045;-72
2023/09/02 17:33:32;;;;;;;3.45;1.75;;;27.90;96.70;;;;;;5045121;28;20059;-72
2023/09/02 17:36:00;;;;;;;6.03;2.00;;;27.80;96.70;;;;;;5057793;28;20929;-72
2023/09/02 17:38:28;;;;;;;4.75;2.20;;;27.70;96.70;;;;;;5045388;28;20047;-73
2023/09/02 17:40:57;;;;;;;3.08;1.77;;;27.60;96.70;;;;;;5040035;28;20062;-72
2023/09/02 17:43:26;;;;;;;3.65;2.13;;;27.50;96.70;;;;;;5051203;28;20518;-73
2023/09/02 17:45:55;;;;;;;3.55;1.63;;;27.40;96.70;;;;;;5040493;28;20051;-72
2023/09/02 17:48:23;;;;;;;4.45;2.25;;;27.20;96.70;;;;;;5044500;28;20072;-72
2023/09/02 17:50:52;;;;;;;4.53;1.73;;;27.20;96.70;;;;;;5046691;28;20040;-72
2023/09/02 17:53:20;;;;;;;4.70;2.08;;;27.10;96.70;;;;;;5041030;28;20059;-73
2023/09/02 17:55:48;;;;;;;3.83;1.63;;;27.00;96.70;;;;;;5043458;28;20094;-73
2023/09/02 17:58:16;;;;;;;5.30;1.88;;;26.90;96.70;;;;;;5036678;28;20124;-72
2023/09/02 18:00:46;;;;;;;3.25;1.70;;;26.90;96.70;;;;;;5044019;28;20098;-73
2023/09/02 18:03:14;;;;;;;6.18;2.15;;;26.80;96.70;;;;;;5045024;28;20608;-72
2023/09/02 18:05:43;;;;;;;3.33;1.70;;;26.70;96.70;;;;;;5045209;28;20374;-72
2023/09/02 18:08:11;;;;;;;7.93;2.75;;;26.70;96.70;;;;;;5063767;28;20686;-73
2023/09/02 18:10:39;;;;;;;3.42;1.85;;;26.70;96.70;;;;;;5063443;28;20037;-72
2023/09/02 18:13:07;;;;;;;6.65;3.13;;;26.70;96.70;;;;;;5041548;28;20060;-72
2023/09/02 18:15:35;;;;;;;9.88;6.10;;;26.70;96.70;;;;;;5042137;28;20406;-71
2023/09/02 18:18:05;;;;;;;12.30;9.75;;;26.80;96.70;;;;;;5056675;28;20049;-72
2023/09/02 18:20:33;;;;;;;14.63;9.32;;;26.90;96.70;;;;;;5033638;28;20045;-73
2023/09/02 18:23:02;;;;;;;9.02;6.53;;;26.90;96.70;;;;;;5046009;28;20458;-72
2023/09/02 18:25:30;;;;;;;6.25;4.20;;;26.90;96.70;;;;;;5028757;28;20114;-72
2023/09/02 18:28:00;;;;;;;8.50;4.57;;;27.00;96.70;;;;;;5062974;28;20048;-72
2023/09/02 18:30:28;;;;;;;6.45;4.75;;;27.00;96.70;;;;;;5043739;28;20041;-73
2023/09/02 18:32:57;;;;;;;4.15;2.67;;;27.10;96.70;;;;;;5064162;28;20372;-73
2023/09/02 18:35:28;;;;;;;5.45;2.60;;;27.10;96.70;;;;;;5028599;28;20044;-72
2023/09/02 18:37:56;;;;;;;4.40;2.63;;;27.10;96.70;;;;;;5042422;28;20053;-72
2023/09/02 18:40:26;;;;;;;5.05;2.50;;;27.20;96.70;;;;;;5060166;28;20153;-72
2023/09/02 18:42:54;;;;;;;6.13;3.40;;;27.10;96.70;;;;;;5041721;28;20073;-73
2023/09/02 18:45:22;;;;;;;9.18;5.05;;;27.20;96.70;;;;;;5045653;28;20043;-72
2023/09/02 18:47:52;;;;;;;6.47;4.32;;;27.20;96.70;;;;;;5063512;28;20037;-72
2023/09/02 18:50:21;;;;;;;6.25;3.13;;;27.10;96.70;;;;;;5045433;28;20558;-72
2023/09/02 18:52:50;;;;;;;6.95;2.42;;;26.90;96.70;;;;;;5063753;28;20148;-72
2023/09/02 18:55:18;;;;;;;4.75;2.40;;;26.80;96.70;;;;;;5044871;28;20049;-72
2023/09/02 18:57:47;;;;;;;5.05;2.58;;;26.70;96.70;;;;;;5045896;28;20041;-72
2023/09/02 19:00:15;;;;;;;3.97;2.28;;;26.70;96.70;;;;;;5045250;28;20052;-72
2023/09/02 19:02:43;;;;;;;6.57;2.83;;;26.70;96.70;;;;;;5054705;28;20046;-72
2023/09/02 19:05:12;;;;;;;3.63;2.00;;;26.60;96.70;;;;;;5045003;28;20464;-72
2023/09/02 19:07:40;;;;;;;4.90;2.42;;;26.60;96.70;;;;;;5063783;28;20048;-72
2023/09/02 19:10:10;;;;;;;5.90;2.50;;;26.60;96.70;;;;;;5042287;28;20053;-72
2023/09/02 19:12:39;;;;;;;3.55;2.08;;;26.70;96.70;;;;;;5044740;28;20061;-72
2023/09/02 19:15:09;;;;;;;3.20;2.00;;;26.70;96.70;;;;;;5063126;28;20052;-72
2023/09/02 19:17:38;;;;;;;3.67;1.90;;;26.70;96.70;;;;;;5048703;28;20071;-72
2023/09/02 19:20:07;;;;;;;3.65;1.98;;;26.60;96.70;;;;;;5060087;28;20048;-72
2023/09/02 19:22:40;;;;;;;4.60;2.45;;;26.60;96.70;;;;;;5046690;28;20564;-72